Time;durP1;ratioP1;P1;durP2;ratioP2;P2;SDS_P1;SDS_P2;PMS_P1;PMS_P2;Temp;Humidity;BMP_temperature;BMP_pressure;BME280_temperature;BME280_humidity;BME280_pressure;Samples;Min_cycle;Max_cycle;Signal;HPM_P1;HPM_P2
2022/09/28 00:01:43;;;;;;;1.80;1.70;;;16.80;67.20;18.00;98754.00;;;;4970984;28;20179;-43
2022/09/28 00:04:09;;;;;;;2.97;1.90;;;16.80;66.40;17.80;98752.00;;;;4970430;28;20184;-43
2022/09/28 00:06:35;;;;;;;1.80;1.70;;;16.80;66.40;18.00;98756.00;;;;4970547;28;20162;-43
2022/09/28 00:09:01;;;;;;;2.50;1.80;;;16.80;66.30;18.00;98762.00;;;;4970436;28;20508;-43
2022/09/28 00:11:27;;;;;;;2.97;2.00;;;16.80;66.20;18.00;98767.00;;;;4970616;28;20173;-43
2022/09/28 00:13:55;;;;;;;2.33;1.70;;;16.70;66.20;18.00;98773.00;;;;4969982;28;20175;-43
2022/09/28 00:16:24;;;;;;;2.20;1.70;;;16.80;66.30;17.90;98770.00;;;;4970434;28;20233;-43
2022/09/28 00:18:50;;;;;;;1.90;1.80;;;16.70;66.10;17.90;98753.00;;;;4970472;28;20276;-43
2022/09/28 00:21:21;;;;;;;2.83;1.70;;;16.80;66.40;17.90;98739.00;;;;4970205;28;20307;-43
2022/09/28 00:26:32;;;;;;;2.43;1.90;;;16.70;66.40;17.90;98758.00;;;;4969216;28;20166;-43
2022/09/28 00:29:00;;;;;;;1.93;1.73;;;16.70;66.40;17.90;98761.00;;;;4970279;28;20170;-43
2022/09/28 00:31:28;;;;;;;2.50;1.80;;;16.70;66.50;17.90;98763.00;;;;4970527;28;20173;-43
2022/09/28 00:33:55;;;;;;;2.90;1.70;;;16.70;66.50;17.90;98751.00;;;;4969219;28;20647;-43
2022/09/28 00:36:22;;;;;;;1.73;1.60;;;16.70;66.50;17.90;98740.00;;;;4970419;28;20173;-43
2022/09/28 00:38:48;;;;;;;1.87;1.70;;;16.70;66.80;17.90;98749.00;;;;4970084;28;20176;-43
2022/09/28 00:41:14;;;;;;;3.03;1.90;;;16.60;66.70;17.90;98746.00;;;;4969783;28;20208;-43
2022/09/28 00:43:40;;;;;;;1.97;1.80;;;16.70;66.90;17.80;98746.00;;;;4968437;28;20167;-43
2022/09/28 00:46:16;;;;;;;1.70;1.60;;;16.60;66.80;17.80;98742.00;;;;4970110;28;20193;-43
2022/09/28 00:48:55;;;;;;;1.90;1.70;;;16.70;66.90;17.80;98742.00;;;;4969930;28;20188;-43
2022/09/28 00:51:21;;;;;;;2.23;1.50;;;16.60;66.80;17.80;98742.00;;;;4968792;28;20192;-43
2022/09/28 00:53:48;;;;;;;2.00;1.80;;;16.60;66.80;17.80;98717.00;;;;4968128;28;20168;-43
2022/09/28 00:56:17;;;;;;;1.83;1.70;;;16.60;67.60;17.80;98739.00;;;;4968718;28;20217;-43
2022/09/28 00:58:46;;;;;;;1.93;1.73;;;16.60;66.80;17.80;98727.00;;;;4968750;28;20170;-43
2022/09/28 01:01:12;;;;;;;2.30;1.77;;;16.60;66.80;17.80;98732.00;;;;4968502;28;20207;-43
2022/09/28 01:03:44;;;;;;;2.50;1.67;;;16.50;66.70;17.80;98740.00;;;;4968129;28;20652;-43
2022/09/28 01:06:10;;;;;;;1.77;1.67;;;16.50;66.60;17.80;98734.00;;;;4969177;28;20197;-43
2022/09/28 01:08:36;;;;;;;2.10;1.60;;;16.50;66.60;17.80;98732.00;;;;4967600;28;20529;-43
2022/09/28 01:11:02;;;;;;;2.30;1.67;;;16.60;66.60;17.70;98730.00;;;;4968208;28;20206;-43
2022/09/28 01:13:28;;;;;;;1.83;1.60;;;16.60;66.60;17.70;98720.00;;;;4969331;28;20174;-43
2022/09/28 01:15:59;;;;;;;1.60;1.50;;;16.50;66.40;17.70;98731.00;;;;4952067;28;20228;-43
2022/09/28 01:18:43;;;;;;;1.80;1.70;;;16.50;66.60;17.70;98724.00;;;;4969717;28;20206;-43
2022/09/28 01:21:16;;;;;;;1.80;1.70;;;16.50;67.30;17.70;98726.00;;;;4968817;28;20197;-43
2022/09/28 01:24:28;;;;;;;2.70;1.70;;;16.50;66.50;17.70;98728.00;;;;4968217;28;20232;-43
2022/09/28 01:27:48;;;;;;;2.03;1.70;;;16.50;66.40;17.70;98726.00;;;;4968224;28;20158;-43
2022/09/28 01:30:20;;;;;;;1.47;1.37;;;16.50;66.60;17.40;98731.00;;;;4946901;28;20185;-46
2022/09/28 01:33:00;;;;;;;1.60;1.50;;;16.50;66.60;17.60;98738.00;;;;4968070;28;20435;-43
2022/09/28 01:35:51;;;;;;;1.60;1.50;;;16.50;66.60;17.60;98739.00;;;;4967983;28;20189;-43
2022/09/28 01:38:24;;;;;;;1.70;1.60;;;16.50;66.70;17.60;98732.00;;;;4950495;28;20214;-43
2022/09/28 01:40:50;;;;;;;1.83;1.70;;;16.50;66.60;17.60;98735.00;;;;4968182;28;20207;-42
2022/09/28 01:43:22;;;;;;;1.57;1.47;;;16.50;66.60;17.60;98719.00;;;;4968798;28;20173;-42
2022/09/28 01:45:53;;;;;;;1.50;1.40;;;16.50;66.60;17.60;98727.00;;;;4969192;28;20767;-43
2022/09/28 01:48:50;;;;;;;1.60;1.50;;;16.50;66.70;17.60;98726.00;;;;4967825;28;20154;-43
2022/09/28 01:51:44;;;;;;;1.90;1.60;;;16.40;66.60;17.60;98720.00;;;;4968136;28;20169;-43
2022/09/28 01:54:18;;;;;;;1.60;1.50;;;16.50;66.70;17.60;98724.00;;;;4962529;28;20192;-43
2022/09/28 01:56:56;;;;;;;1.30;1.30;;;16.40;66.60;17.60;98716.00;;;;4967716;28;20326;-43
2022/09/28 01:59:25;;;;;;;1.50;1.40;;;16.40;66.60;17.60;98729.00;;;;4967783;28;20172;-43
2022/09/28 02:02:07;;;;;;;1.80;1.70;;;16.40;66.60;17.60;98711.00;;;;4967632;28;20254;-43
2022/09/28 02:04:38;;;;;;;1.70;1.60;;;16.40;66.60;17.60;98717.00;;;;4967654;28;20197;-43
2022/09/28 02:07:14;;;;;;;1.47;1.37;;;16.40;66.70;17.50;98705.00;;;;4967641;28;20167;-43
2022/09/28 02:09:50;;;;;;;1.53;1.40;;;16.40;66.60;17.60;98712.00;;;;4967764;28;20537;-43
2022/09/28 02:13:04;;;;;;;1.50;1.40;;;16.40;66.60;17.50;98710.00;;;;4967757;28;20712;-43
2022/09/28 02:15:53;;;;;;;1.23;1.20;;;16.40;66.70;17.50;98717.00;;;;4959812;28;20224;-43
2022/09/28 02:18:19;;;;;;;1.43;1.33;;;16.40;66.70;17.50;98719.00;;;;4968900;28;20181;-43
2022/09/28 02:20:59;;;;;;;1.87;1.50;;;16.40;67.00;17.50;98711.00;;;;4971253;28;20254;-43
2022/09/28 02:23:26;;;;;;;1.80;1.20;;;16.40;67.30;17.50;98720.00;;;;4971346;28;20533;-43
2022/09/28 02:25:59;;;;;;;1.90;1.60;;;16.40;67.30;17.50;98725.00;;;;4971451;28;20540;-44
2022/09/28 02:28:24;;;;;;;3.83;1.57;;;16.40;67.10;17.50;98711.00;;;;4971376;28;20317;-41
2022/09/28 02:30:50;;;;;;;1.60;1.50;;;16.40;67.10;17.50;98724.00;;;;4972129;28;20200;-41
2022/09/28 02:33:27;;;;;;;2.97;1.50;;;16.30;66.80;17.50;98714.00;;;;4971554;28;20204;-41
2022/09/28 02:35:52;;;;;;;3.23;1.53;;;16.40;66.90;17.50;98713.00;;;;4970905;28;20257;-43
2022/09/28 02:38:18;;;;;;;2.70;1.90;;;16.40;66.80;17.50;98713.00;;;;4972503;28;20266;-42
2022/09/28 02:40:52;;;;;;;4.23;1.80;;;16.40;66.80;17.50;98714.00;;;;4972134;28;20666;-42
2022/09/28 02:43:57;;;;;;;5.07;2.00;;;16.40;66.90;17.50;98717.00;;;;4970797;28;20625;-42
2022/09/28 02:46:37;;;;;;;3.23;1.70;;;16.30;66.80;17.50;98718.00;;;;4956371;28;20677;-42
2022/09/28 02:49:34;;;;;;;3.37;1.80;;;16.30;66.80;17.50;98722.00;;;;4970802;28;20188;-42
2022/09/28 02:52:40;;;;;;;1.80;1.70;;;16.30;66.70;17.50;98718.00;;;;4972029;28;20163;-43
2022/09/28 02:55:24;;;;;;;4.67;1.57;;;16.30;66.60;17.40;98722.00;;;;4970481;28;20197;-43
2022/09/28 02:58:00;;;;;;;2.23;1.70;;;16.30;66.60;17.40;98721.00;;;;4970742;28;20499;-42
2022/09/28 03:00:26;;;;;;;3.13;1.63;;;16.30;66.50;17.40;98717.00;;;;4970920;28;20653;-43
2022/09/28 03:03:17;;;;;;;2.07;1.53;;;16.30;66.60;17.40;98719.00;;;;4971160;28;20184;-44
2022/09/28 03:05:57;;;;;;;1.87;1.57;;;16.20;66.40;17.40;98716.00;;;;4972326;28;20333;-43
2022/09/28 03:08:30;;;;;;;1.60;1.50;;;16.30;66.40;17.40;98715.00;;;;4970850;28;20162;-42
2022/09/28 03:11:06;;;;;;;1.93;1.73;;;16.20;66.40;17.40;98715.00;;;;4971036;28;20179;-43
2022/09/28 03:13:33;;;;;;;2.20;1.70;;;16.30;66.40;17.40;98715.00;;;;4970726;28;20169;-42
2022/09/28 03:16:14;;;;;;;2.47;1.77;;;16.30;66.30;17.40;98724.00;;;;4954346;28;20272;-43
2022/09/28 03:18:40;;;;;;;2.70;1.80;;;16.30;66.20;17.40;98717.00;;;;4970444;28;20202;-43
2022/09/28 03:21:06;;;;;;;2.77;1.77;;;16.30;66.10;17.40;98721.00;;;;4970772;28;20236;-42
2022/09/28 03:23:32;;;;;;;2.60;1.80;;;16.20;66.10;17.40;98724.00;;;;4970515;28;20580;-43
2022/09/28 03:25:57;;;;;;;4.90;2.00;;;16.20;66.50;17.40;98713.00;;;;4971428;28;20202;-43
2022/09/28 03:28:23;;;;;;;4.87;1.80;;;16.20;66.30;17.40;98714.00;;;;4964148;28;20580;-43
2022/09/28 03:30:49;;;;;;;3.47;1.90;;;16.30;66.30;17.40;98728.00;;;;4967880;28;20216;-43
2022/09/28 03:33:14;;;;;;;4.13;1.70;;;16.20;66.30;17.30;98717.00;;;;4968997;28;20223;-43
2022/09/28 03:35:40;;;;;;;3.10;1.90;;;16.20;66.30;17.40;98722.00;;;;4968881;28;20204;-43
2022/09/28 03:38:06;;;;;;;3.77;1.90;;;16.20;66.40;17.40;98739.00;;;;4968741;28;20191;-43
2022/09/28 03:40:32;;;;;;;4.97;2.10;;;16.20;66.30;17.30;98725.00;;;;4968695;28;20309;-43
2022/09/28 03:42:59;;;;;;;3.43;2.10;;;16.20;66.30;17.40;98730.00;;;;4968516;28;20201;-43
2022/09/28 03:45:25;;;;;;;5.70;2.00;;;16.20;66.30;17.30;98728.00;;;;4968416;28;20247;-43
2022/09/28 03:47:51;;;;;;;1.97;1.80;;;16.20;66.20;17.30;98719.00;;;;4970895;28;20181;-43
2022/09/28 03:50:16;;;;;;;3.53;1.80;;;16.20;66.20;17.40;98718.00;;;;4970663;28;20224;-43
2022/09/28 03:52:42;;;;;;;3.83;1.50;;;16.20;66.20;17.30;98718.00;;;;4970083;28;20180;-43
2022/09/28 03:55:08;;;;;;;4.70;2.00;;;16.20;66.50;17.30;98722.00;;;;4970714;28;20193;-43
2022/09/28 03:57:34;;;;;;;4.87;2.07;;;16.20;66.60;17.30;98719.00;;;;4970486;28;20275;-42
2022/09/28 04:00:00;;;;;;;6.43;2.43;;;16.10;66.80;17.30;98725.00;;;;4970539;28;20451;-43
2022/09/28 04:02:25;;;;;;;4.17;2.33;;;16.10;66.70;17.30;98733.00;;;;4971322;28;20578;-42
2022/09/28 04:04:51;;;;;;;3.20;2.00;;;16.10;66.60;17.30;98730.00;;;;4970725;28;20200;-42
2022/09/28 04:07:17;;;;;;;3.10;2.13;;;16.10;66.50;17.30;98735.00;;;;4970798;28;20579;-42
2022/09/28 04:09:43;;;;;;;3.03;2.20;;;16.10;66.50;17.30;98734.00;;;;4970534;28;20181;-43
2022/09/28 04:12:08;;;;;;;4.47;1.80;;;16.10;66.40;17.30;98742.00;;;;4970548;28;20229;-42
2022/09/28 04:14:34;;;;;;;3.57;2.03;;;16.10;66.40;17.30;98729.00;;;;4971014;28;20201;-41
2022/09/28 04:17:00;;;;;;;3.63;2.07;;;16.10;66.40;17.30;98723.00;;;;4971114;28;20177;-41
2022/09/28 04:19:26;;;;;;;3.07;2.10;;;16.10;66.30;17.30;98728.00;;;;4970812;28;20176;-42
2022/09/28 04:21:52;;;;;;;2.60;2.00;;;16.10;66.30;17.30;98723.00;;;;4970885;28;20177;-42
2022/09/28 04:24:19;;;;;;;3.10;2.13;;;16.10;66.40;17.30;98721.00;;;;4970686;28;20571;-42
2022/09/28 04:26:44;;;;;;;3.30;2.00;;;16.10;66.20;17.30;98726.00;;;;4970618;28;20208;-42
2022/09/28 04:29:16;;;;;;;2.70;2.10;;;16.10;66.10;17.30;98723.00;;;;4970803;28;20200;-42
2022/09/28 04:31:46;;;;;;;3.93;2.17;;;16.10;66.20;17.30;98735.00;;;;4970923;28;20157;-42
2022/09/28 04:34:16;;;;;;;2.17;1.97;;;16.00;66.10;17.30;98729.00;;;;4969346;28;20238;-42
2022/09/28 04:36:43;;;;;;;2.27;1.90;;;16.10;66.10;17.20;98733.00;;;;4970809;28;20163;-42
2022/09/28 04:39:13;;;;;;;2.40;2.20;;;16.10;66.00;17.30;98731.00;;;;4970804;28;20181;-44
2022/09/28 04:41:40;;;;;;;2.13;2.00;;;16.10;66.00;17.20;98734.00;;;;4968855;28;20202;-43
2022/09/28 04:44:05;;;;;;;2.47;2.00;;;16.00;65.90;17.30;98737.00;;;;4969584;28;20177;-43
2022/09/28 04:46:31;;;;;;;2.30;2.03;;;16.00;65.80;17.20;98736.00;;;;4970192;28;20661;-43
2022/09/28 04:48:57;;;;;;;3.30;1.90;;;16.00;66.00;17.20;98730.00;;;;4970657;28;20177;-43
2022/09/28 04:51:23;;;;;;;2.20;2.00;;;16.00;66.00;17.20;98730.00;;;;4969753;28;20166;-43
2022/09/28 04:53:49;;;;;;;2.30;2.10;;;16.00;65.90;17.20;98737.00;;;;4969921;28;20232;-43
2022/09/28 04:56:16;;;;;;;2.13;2.03;;;16.00;66.00;17.20;98710.00;;;;4969831;28;20677;-43
2022/09/28 04:58:42;;;;;;;2.20;2.00;;;16.00;65.90;17.20;98728.00;;;;4970075;28;20284;-43
2022/09/28 05:01:14;;;;;;;3.27;2.00;;;16.00;65.90;17.20;98732.00;;;;4969748;28;20205;-43
2022/09/28 05:03:40;;;;;;;2.20;2.00;;;16.00;65.80;17.20;98734.00;;;;4968936;28;20232;-43
2022/09/28 05:06:06;;;;;;;2.87;2.00;;;16.00;65.80;17.20;98729.00;;;;4970074;28;20200;-43
2022/09/28 05:08:34;;;;;;;2.10;1.90;;;16.00;65.80;17.20;98730.00;;;;4969824;28;20177;-43
2022/09/28 05:11:02;;;;;;;2.20;2.00;;;16.00;65.80;17.20;98730.00;;;;4968612;28;20558;-43
2022/09/28 05:13:28;;;;;;;2.37;2.10;;;16.00;65.80;17.20;98726.00;;;;4969750;28;20767;-43
2022/09/28 05:15:55;;;;;;;2.13;1.93;;;16.00;65.80;17.20;98734.00;;;;4969755;28;20658;-43
2022/09/28 05:18:21;;;;;;;2.30;2.10;;;16.00;65.80;17.20;98725.00;;;;4970438;28;20181;-43
2022/09/28 05:20:46;;;;;;;2.33;2.13;;;15.90;65.70;17.10;98723.00;;;;4969717;28;20201;-43
2022/09/28 05:23:14;;;;;;;2.40;2.20;;;16.00;65.70;17.10;98739.00;;;;4970428;28;20177;-43
2022/09/28 05:25:40;;;;;;;2.50;2.30;;;15.90;65.70;17.10;98735.00;;;;4969568;28;20197;-44
2022/09/28 05:28:06;;;;;;;2.00;1.90;;;15.90;65.60;17.10;98736.00;;;;4969766;28;20183;-42
2022/09/28 05:30:33;;;;;;;2.20;2.00;;;15.90;65.60;17.10;98736.00;;;;4969593;28;20169;-43
2022/09/28 05:32:58;;;;;;;2.30;2.10;;;15.90;65.60;17.10;98734.00;;;;4970029;28;20185;-43
2022/09/28 05:35:24;;;;;;;2.67;2.10;;;15.90;65.60;17.10;98742.00;;;;4969537;28;20207;-43
2022/09/28 05:37:50;;;;;;;2.40;2.20;;;15.90;65.60;17.10;98742.00;;;;4969590;28;20269;-43
2022/09/28 05:40:16;;;;;;;3.33;2.33;;;15.90;65.60;17.10;98736.00;;;;4969582;28;20193;-43
2022/09/28 05:42:42;;;;;;;2.40;2.20;;;15.90;65.60;17.10;98741.00;;;;4969768;28;20223;-42
2022/09/28 05:45:09;;;;;;;2.97;2.30;;;15.90;65.60;17.10;98744.00;;;;4969121;28;20533;-43
2022/09/28 05:47:38;;;;;;;2.20;2.00;;;15.80;65.50;17.10;98752.00;;;;4969862;28;20646;-43
2022/09/28 05:50:06;;;;;;;2.40;2.20;;;15.90;65.60;17.10;98740.00;;;;4968043;28;20597;-43
2022/09/28 05:52:32;;;;;;;2.20;2.00;;;15.80;65.50;17.10;98739.00;;;;4969603;28;20204;-43
2022/09/28 05:54:58;;;;;;;2.40;2.20;;;15.90;65.50;17.10;98750.00;;;;4972418;28;20192;-43
2022/09/28 05:57:23;;;;;;;2.40;2.20;;;15.90;65.50;17.10;98752.00;;;;4973466;28;20189;-43
2022/09/28 05:59:49;;;;;;;3.07;2.20;;;15.80;65.40;17.00;98760.00;;;;4972961;28;20678;-43
2022/09/28 06:02:15;;;;;;;2.23;2.13;;;15.80;65.40;17.00;98749.00;;;;4973342;28;20177;-42
2022/09/28 06:04:40;;;;;;;2.40;2.20;;;15.80;65.50;17.00;98740.00;;;;4973036;28;20236;-43
2022/09/28 06:07:06;;;;;;;2.40;2.13;;;15.80;65.40;17.00;98756.00;;;;4973380;28;20603;-43
2022/09/28 06:09:32;;;;;;;2.10;2.00;;;15.80;65.40;17.00;98755.00;;;;4973151;28;20184;-43
2022/09/28 06:11:58;;;;;;;2.47;2.27;;;15.80;65.30;17.00;98757.00;;;;4972931;28;20208;-43
2022/09/28 06:14:24;;;;;;;2.73;2.30;;;15.80;65.20;17.00;98757.00;;;;4973083;28;20193;-43
2022/09/28 06:16:50;;;;;;;2.60;2.33;;;15.80;65.30;17.00;98762.00;;;;4973091;28;20639;-42
2022/09/28 06:19:16;;;;;;;2.40;2.20;;;15.80;65.20;17.00;98759.00;;;;4972181;28;20257;-42
2022/09/28 06:21:42;;;;;;;2.30;2.10;;;15.80;65.40;17.00;98769.00;;;;4972890;28;20215;-42
2022/09/28 06:24:07;;;;;;;2.37;2.10;;;15.80;65.30;17.00;98769.00;;;;4971586;28;20228;-43
2022/09/28 06:26:33;;;;;;;2.30;2.10;;;15.80;65.30;17.00;98758.00;;;;4972745;28;20205;-42
2022/09/28 06:29:02;;;;;;;2.40;2.20;;;15.80;65.30;17.00;98771.00;;;;4973435;28;20181;-42
2022/09/28 06:31:30;;;;;;;2.40;2.20;;;15.80;65.30;17.00;98769.00;;;;4973340;28;20177;-43
2022/09/28 06:33:55;;;;;;;2.40;2.20;;;15.80;65.40;17.00;98769.00;;;;4972956;28;20208;-42
2022/09/28 06:36:21;;;;;;;2.40;2.20;;;15.70;65.20;17.00;98779.00;;;;4972663;28;20181;-42
2022/09/28 06:38:47;;;;;;;2.30;2.10;;;15.80;65.30;17.00;98778.00;;;;4973070;28;20176;-42
2022/09/28 06:41:13;;;;;;;2.30;2.10;;;15.70;65.10;17.00;98775.00;;;;4972389;28;20248;-42
2022/09/28 06:43:39;;;;;;;2.57;2.10;;;15.80;65.10;17.00;98783.00;;;;4972610;28;20589;-42
2022/09/28 06:46:05;;;;;;;2.83;2.10;;;15.70;65.00;17.00;98788.00;;;;4972429;28;20204;-42
2022/09/28 06:48:32;;;;;;;2.13;1.93;;;15.70;65.10;16.90;98795.00;;;;4971313;28;20158;-42
2022/09/28 06:50:59;;;;;;;2.07;1.97;;;15.70;65.10;16.90;98793.00;;;;4972526;28;20192;-43
2022/09/28 06:53:26;;;;;;;2.83;2.03;;;15.70;65.10;16.90;98798.00;;;;4972378;28;20554;-43
2022/09/28 06:55:51;;;;;;;2.07;1.90;;;15.70;65.00;16.90;98793.00;;;;4972255;28;20571;-42
2022/09/28 06:58:18;;;;;;;2.20;2.00;;;15.70;65.00;16.90;98784.00;;;;4971937;28;20161;-42
2022/09/28 07:00:44;;;;;;;2.30;2.10;;;15.70;65.00;16.90;98800.00;;;;4971870;28;20201;-42
2022/09/28 07:03:12;;;;;;;2.30;2.10;;;15.70;64.90;16.90;98799.00;;;;4972195;28;20225;-43
2022/09/28 07:05:46;;;;;;;2.00;1.80;;;15.70;64.90;16.90;98809.00;;;;4970974;28;20577;-42
2022/09/28 07:08:12;;;;;;;2.33;2.10;;;15.70;64.90;16.90;98805.00;;;;4971038;28;20405;-43
2022/09/28 07:10:46;;;;;;;2.00;1.90;;;15.70;64.90;16.90;98811.00;;;;4970859;28;20731;-42
2022/09/28 07:13:15;;;;;;;2.10;1.90;;;15.70;64.90;16.70;98753.00;;;;4893317;28;20185;-42
2022/09/28 07:15:42;;;;;;;2.10;1.93;;;15.60;64.60;16.90;98817.00;;;;4954256;28;20283;-43
2022/09/28 07:18:08;;;;;;;2.50;2.00;;;15.70;65.00;16.90;98818.00;;;;4971829;28;20164;-42
2022/09/28 07:20:34;;;;;;;2.10;1.90;;;15.70;64.90;16.90;98823.00;;;;4970409;28;20205;-43
2022/09/28 07:23:03;;;;;;;2.03;1.93;;;15.70;64.90;16.90;98803.00;;;;4971533;28;20551;-43
2022/09/28 07:25:30;;;;;;;2.10;1.90;;;15.70;64.80;16.90;98828.00;;;;4970060;28;20193;-42
2022/09/28 07:27:56;;;;;;;2.00;1.90;;;15.70;64.90;16.90;98834.00;;;;4971016;28;20259;-43
2022/09/28 07:30:23;;;;;;;1.97;1.80;;;15.70;64.90;16.90;98825.00;;;;4971117;28;20490;-43
2022/09/28 07:32:50;;;;;;;1.90;1.80;;;15.70;64.90;16.90;98826.00;;;;4971071;28;20177;-43
2022/09/28 07:35:16;;;;;;;2.03;1.93;;;15.60;64.70;16.90;98829.00;;;;4969951;28;20287;-42
2022/09/28 07:37:41;;;;;;;2.30;2.10;;;15.60;64.70;16.80;98831.00;;;;4969758;28;20733;-43
2022/09/28 07:42:52;;;;;;;2.10;1.80;;;15.60;64.80;16.80;98840.00;;;;4970940;28;20164;-43
2022/09/28 07:45:24;;;;;;;1.90;1.80;;;15.60;65.10;16.80;98844.00;;;;4970739;28;20215;-43
2022/09/28 07:47:56;;;;;;;6.43;2.00;;;15.60;65.40;16.80;98846.00;;;;4971350;28;20189;-43
2022/09/28 07:50:22;;;;;;;3.93;2.00;;;15.70;65.90;16.80;98850.00;;;;4970701;28;20162;-42
2022/09/28 07:52:48;;;;;;;5.53;1.97;;;15.80;65.80;16.80;98853.00;;;;4971411;28;20646;-43
2022/09/28 07:55:14;;;;;;;3.67;2.00;;;15.90;65.80;16.90;98857.00;;;;4971429;28;20284;-43
2022/09/28 07:57:39;;;;;;;4.83;1.90;;;16.00;65.70;16.90;98857.00;;;;4969971;28;20200;-42
2022/09/28 08:00:07;;;;;;;5.80;2.10;;;16.20;65.60;17.00;98864.00;;;;4971479;28;20295;-43
2022/09/28 08:02:34;;;;;;;4.93;2.10;;;16.30;65.40;17.00;98869.00;;;;4971417;28;20166;-43
2022/09/28 08:05:01;;;;;;;3.87;2.00;;;16.50;65.20;17.10;98864.00;;;;4970115;28;20205;-43
2022/09/28 08:07:26;;;;;;;5.57;1.90;;;16.60;64.90;17.20;98866.00;;;;4971071;28;20268;-42
2022/09/28 08:09:52;;;;;;;4.00;1.67;;;16.80;64.50;17.30;98868.00;;;;4971398;28;20181;-43
2022/09/28 08:12:20;;;;;;;2.27;1.67;;;17.00;64.30;17.40;98865.00;;;;4972082;28;20200;-43
2022/09/28 08:14:46;;;;;;;3.43;1.97;;;17.10;64.10;17.50;98859.00;;;;4870555;28;20200;-43
2022/09/28 08:17:12;;;;;;;2.57;1.90;;;17.20;63.80;17.60;98870.00;;;;4970975;28;20591;-43
2022/09/28 08:22:22;;;;;;;3.23;1.87;;;17.50;63.90;17.80;98874.00;;;;4971375;28;20170;-42
2022/09/28 08:24:49;;;;;;;4.43;2.03;;;17.60;63.70;17.80;98869.00;;;;4969290;28;20228;-43
2022/09/28 08:27:15;;;;;;;2.30;1.80;;;17.60;63.80;17.90;98876.00;;;;4970608;28;20260;-43
2022/09/28 08:29:42;;;;;;;2.13;1.63;;;17.60;64.10;18.00;98873.00;;;;4970885;28;20179;-43
2022/09/28 08:32:08;;;;;;;3.57;1.90;;;17.70;64.20;18.00;98871.00;;;;4970570;28;20175;-43
2022/09/28 08:34:39;;;;;;;1.93;1.63;;;17.70;64.20;18.10;98879.00;;;;4970425;28;20187;-42
2022/09/28 08:37:06;;;;;;;4.63;1.70;;;17.80;64.40;18.20;98880.00;;;;4970769;28;20185;-43
2022/09/28 08:39:33;;;;;;;4.00;1.90;;;17.80;64.60;18.20;98875.00;;;;4970878;28;20181;-43
2022/09/28 08:42:21;;;;;;;3.03;1.70;;;17.80;65.00;18.20;98883.00;;;;4971103;28;20181;-43
2022/09/28 08:44:56;;;;;;;9.97;1.90;;;17.90;65.30;18.30;98889.00;;;;4970683;28;20201;-44
2022/09/28 08:50:17;;;;;;;5.53;1.93;;;17.90;65.80;18.30;98890.00;;;;4957326;28;20593;-43
2022/09/28 08:52:45;;;;;;;6.20;1.70;;;18.00;65.80;18.40;98893.00;;;;4954060;28;20184;-43
2022/09/28 08:55:33;;;;;;;7.20;1.80;;;18.00;65.50;18.40;98892.00;;;;4968956;28;20207;-43
2022/09/28 08:58:24;;;;;;;6.90;2.07;;;18.00;65.50;18.40;98898.00;;;;4969655;28;20204;-43
2022/09/28 09:00:51;;;;;;;6.23;1.87;;;18.00;65.60;18.40;98906.00;;;;4962017;28;20222;-43
2022/09/28 09:03:34;;;;;;;5.70;1.87;;;18.00;66.20;18.50;98895.00;;;;4968436;28;20183;-44
2022/09/28 09:06:34;;;;;;;3.77;1.93;;;18.00;66.50;18.50;98905.00;;;;4953311;28;20195;-43
2022/09/28 09:09:34;;;;;;;9.17;2.13;;;18.00;66.60;18.50;98915.00;;;;4971246;28;20187;-43
2022/09/28 09:12:38;;;;;;;4.43;1.97;;;18.00;66.00;18.50;98907.00;;;;4969276;28;20210;-44
2022/09/28 09:15:20;;;;;;;6.33;2.03;;;18.10;65.80;18.50;98915.00;;;;4956168;28;20248;-44
2022/09/28 09:18:16;;;;;;;8.17;1.70;;;18.10;65.90;18.50;98920.00;;;;4969120;28;20238;-44
2022/09/28 09:20:58;;;;;;;5.77;2.07;;;18.10;65.70;18.60;98904.00;;;;4968919;28;20195;-44
2022/09/28 09:23:38;;;;;;;7.57;2.00;;;18.10;66.60;18.60;98910.00;;;;4835133;28;20208;-43
2022/09/28 09:26:19;;;;;;;10.10;2.23;;;18.20;65.90;18.60;98914.00;;;;4968049;28;20195;-44
2022/09/28 09:29:16;;;;;;;12.70;2.70;;;18.20;65.90;18.60;98907.00;;;;4948485;28;20214;-44
2022/09/28 09:32:30;;;;;;;13.60;2.57;;;18.10;66.00;18.70;98913.00;;;;4949722;29;20165;-44
2022/09/28 09:35:38;;;;;;;5.77;2.17;;;18.10;66.20;18.70;98921.00;;;;4941973;29;20814;-44
2022/09/28 09:39:04;;;;;;;5.23;2.20;;;18.10;66.30;18.70;98931.00;;;;4950568;29;20196;-43
2022/09/28 09:41:48;;;;;;;11.60;2.30;;;18.10;66.10;18.70;98931.00;;;;4959784;28;20270;-43
2022/09/28 09:44:32;;;;;;;6.57;2.17;;;18.20;66.00;18.70;98931.00;;;;4969171;28;20228;-44
2022/09/28 09:47:08;;;;;;;10.67;2.63;;;18.20;65.90;18.70;98938.00;;;;4969503;28;20187;-43
2022/09/28 09:49:42;;;;;;;7.67;1.93;;;18.20;65.80;18.70;98933.00;;;;4967925;28;20168;-43
2022/09/28 09:52:37;;;;;;;9.00;2.10;;;18.20;65.80;18.80;98936.00;;;;4969658;28;20160;-43
2022/09/28 09:55:09;;;;;;;6.87;2.20;;;18.20;66.30;18.80;98929.00;;;;4968229;28;20200;-43
2022/09/28 09:57:57;;;;;;;12.00;2.27;;;18.30;66.10;18.80;98926.00;;;;4970014;28;20190;-43
2022/09/28 10:00:23;;;;;;;11.27;2.53;;;18.30;66.20;18.80;98923.00;;;;4971271;28;20189;-43
2022/09/28 10:02:48;;;;;;;7.40;2.10;;;18.30;66.60;18.80;98932.00;;;;4968663;28;20165;-43
2022/09/28 10:05:21;;;;;;;316.07;14.27;;;18.30;65.80;18.90;98934.00;;;;4952695;28;20243;-46
2022/09/28 10:08:02;;;;;;;26.43;3.37;;;18.40;70.50;18.90;98934.00;;;;4969583;28;20158;-46
2022/09/28 10:10:32;;;;;;;19.50;2.90;;;18.50;68.00;18.90;98928.00;;;;4969709;28;20176;-46
2022/09/28 10:12:58;;;;;;;16.20;3.33;;;18.50;67.10;18.90;98938.00;;;;4969055;28;20744;-46
2022/09/28 10:15:31;;;;;;;18.87;3.67;;;18.50;66.80;19.00;98936.00;;;;4969307;28;20207;-46
2022/09/28 10:18:00;;;;;;;18.20;3.07;;;18.40;66.60;19.00;98936.00;;;;4964369;28;20177;-46
2022/09/28 10:20:26;;;;;;;15.63;2.70;;;18.40;66.50;19.00;98932.00;;;;4948829;29;20220;-45
2022/09/28 10:22:52;;;;;;;9.97;3.10;;;18.40;66.40;19.00;98936.00;;;;4918343;28;20188;-46
2022/09/28 10:25:18;;;;;;;10.97;2.60;;;18.40;66.40;19.00;98927.00;;;;4937599;28;20197;-46
2022/09/28 10:27:45;;;;;;;13.70;2.93;;;18.40;66.50;19.00;98930.00;;;;4968404;28;20250;-46
2022/09/28 10:30:22;;;;;;;11.80;2.83;;;18.30;66.50;19.00;98929.00;;;;4967977;28;20173;-45
2022/09/28 10:32:54;;;;;;;13.10;2.87;;;18.40;66.40;19.00;98926.00;;;;4965018;28;21383;-45
2022/09/28 10:35:22;;;;;;;11.73;3.07;;;18.40;66.20;19.10;98935.00;;;;4967181;28;20210;-45
2022/09/28 10:38:03;;;;;;;15.37;2.90;;;18.40;66.20;19.10;98939.00;;;;4970102;28;20188;-45
2022/09/28 10:40:38;;;;;;;13.33;3.30;;;18.50;66.00;19.10;98931.00;;;;4969945;28;20673;-46
2022/09/28 10:43:16;;;;;;;10.13;2.90;;;18.50;66.10;19.10;98930.00;;;;4971514;28;20165;-43
2022/09/28 10:45:42;;;;;;;12.50;2.80;;;18.50;66.00;19.10;98944.00;;;;4970782;28;20200;-45
2022/09/28 10:48:20;;;;;;;10.60;3.00;;;18.50;66.10;19.10;98955.00;;;;4970787;28;20177;-45
2022/09/28 10:51:07;;;;;;;13.03;2.73;;;18.40;66.10;19.10;98929.00;;;;4970618;28;20183;-46
2022/09/28 10:53:35;;;;;;;17.07;3.37;;;18.40;66.20;19.10;98922.00;;;;4971634;28;20181;-46
2022/09/28 10:56:02;;;;;;;22.90;3.33;;;18.50;66.30;19.20;98943.00;;;;4970776;28;20283;-46
2022/09/28 10:58:39;;;;;;;17.60;3.00;;;18.40;66.40;19.10;98948.00;;;;4971092;28;20177;-44
2022/09/28 11:01:17;;;;;;;17.70;3.40;;;18.40;66.50;19.20;98914.00;;;;4969627;28;20815;-47
2022/09/28 11:03:57;;;;;;;15.43;2.97;;;18.40;66.30;19.20;98935.00;;;;4970503;28;20184;-44
2022/09/28 11:06:28;;;;;;;14.00;3.13;;;18.50;66.30;19.20;98943.00;;;;4970592;28;20248;-45
2022/09/28 11:09:00;;;;;;;12.60;3.00;;;18.50;66.30;19.20;98946.00;;;;4970906;28;20638;-45
2022/09/28 11:11:26;;;;;;;9.20;2.87;;;18.40;66.50;19.20;98947.00;;;;4955323;28;20504;-45
2022/09/28 11:13:59;;;;;;;12.43;2.67;;;18.40;66.40;19.20;98933.00;;;;4970159;28;20195;-45
2022/09/28 11:16:29;;;;;;;13.60;2.90;;;18.40;66.50;19.20;98951.00;;;;4969961;28;20240;-46
2022/09/28 11:19:04;;;;;;;10.47;2.67;;;18.40;66.40;19.20;98956.00;;;;4968238;28;20244;-48
2022/09/28 11:21:39;;;;;;;10.20;2.60;;;18.40;66.50;19.20;98946.00;;;;4951456;29;20193;-46
2022/09/28 11:24:25;;;;;;;10.70;2.40;;;18.30;66.30;19.20;98941.00;;;;4913018;28;20307;-46